Time;durP1;ratioP1;P1;durP2;ratioP2;P2;SDS_P1;SDS_P2;PMS_P1;PMS_P2;Temp;Humidity;BMP_temperature;BMP_pressure;BME280_temperature;BME280_humidity;BME280_pressure;Samples;Min_cycle;Max_cycle;Signal;HPM_P1;HPM_P2
2021/09/04 00:02:08;;;;;;;10.80;5.03;;;15.10;99.90;;;;;;5027249;28;20155;-79
2021/09/04 00:04:34;;;;;;;10.25;4.85;;;15.10;99.90;;;;;;5012632;28;20145;-79
2021/09/04 00:06:59;;;;;;;13.65;5.10;;;15.10;99.90;;;;;;5025344;28;20144;-79
2021/09/04 00:09:25;;;;;;;9.27;4.93;;;15.10;99.90;;;;;;5009850;28;20115;-79
2021/09/04 00:11:50;;;;;;;11.05;4.65;;;15.10;99.90;;;;;;4996065;28;20501;-79
2021/09/04 00:14:17;;;;;;;10.60;4.60;;;15.10;99.90;;;;;;5020003;28;20128;-79
2021/09/04 00:16:42;;;;;;;10.32;4.57;;;15.10;99.90;;;;;;5023352;28;20144;-78
2021/09/04 00:19:08;;;;;;;9.88;4.80;;;15.20;99.90;;;;;;5004580;28;20183;-79
2021/09/04 00:21:34;;;;;;;10.13;4.60;;;15.20;99.90;;;;;;5027339;28;20400;-79
2021/09/04 00:23:59;;;;;;;12.23;4.68;;;15.10;99.90;;;;;;5025196;28;20504;-79
2021/09/04 00:26:27;;;;;;;16.98;4.80;;;15.10;99.90;;;;;;5010061;28;20054;-79
2021/09/04 00:28:53;;;;;;;11.80;4.32;;;15.20;99.90;;;;;;5007963;28;20053;-79
2021/09/04 00:31:19;;;;;;;9.32;4.47;;;15.10;99.90;;;;;;5023794;28;20123;-79
2021/09/04 00:33:45;;;;;;;14.73;4.30;;;15.20;99.90;;;;;;5022707;28;20099;-79
2021/09/04 00:36:10;;;;;;;11.05;4.60;;;15.10;99.90;;;;;;5025214;28;20068;-79
2021/09/04 00:38:36;;;;;;;15.95;4.85;;;15.10;99.90;;;;;;5026169;28;20572;-79
2021/09/04 00:41:01;;;;;;;10.32;4.45;;;15.20;99.90;;;;;;5023944;28;20060;-79
2021/09/04 00:43:27;;;;;;;12.93;4.60;;;15.20;99.90;;;;;;5011143;28;20057;-79
2021/09/04 00:45:53;;;;;;;12.18;4.57;;;15.10;99.90;;;;;;5017911;28;20453;-79
2021/09/04 00:48:18;;;;;;;9.35;4.22;;;15.10;99.90;;;;;;5024469;28;20504;-79
2021/09/04 00:50:44;;;;;;;13.07;4.57;;;15.20;99.90;;;;;;5019853;28;20054;-79
2021/09/04 00:53:10;;;;;;;10.55;4.03;;;15.20;99.90;;;;;;5019696;28;20053;-79
2021/09/04 00:55:36;;;;;;;11.02;4.07;;;15.10;99.90;;;;;;5026576;28;20054;-79
2021/09/04 00:58:01;;;;;;;8.90;4.00;;;15.10;99.90;;;;;;5023977;28;20338;-79
2021/09/04 01:00:29;;;;;;;11.27;3.72;;;15.10;99.90;;;;;;5024820;28;20051;-79
2021/09/04 01:02:54;;;;;;;10.27;4.07;;;15.00;99.90;;;;;;5027454;28;20042;-79
2021/09/04 01:05:20;;;;;;;7.60;3.15;;;15.00;99.90;;;;;;5020133;28;20049;-79
2021/09/04 01:07:47;;;;;;;8.95;3.80;;;15.00;99.90;;;;;;5014213;28;20069;-79
2021/09/04 01:10:13;;;;;;;9.30;3.38;;;15.00;99.90;;;;;;5016646;28;20054;-79
2021/09/04 01:12:39;;;;;;;5.60;3.17;;;15.00;99.90;;;;;;5020047;28;20045;-79
2021/09/04 01:15:07;;;;;;;8.25;3.40;;;15.00;99.90;;;;;;5028340;28;20025;-78
2021/09/04 01:17:33;;;;;;;9.07;3.05;;;15.00;99.90;;;;;;5022959;28;20053;-79
2021/09/04 01:19:59;;;;;;;9.60;2.97;;;15.00;99.90;;;;;;5000876;28;20076;-79
2021/09/04 01:22:29;;;;;;;11.52;3.38;;;15.00;99.90;;;;;;5025180;28;20084;-79
2021/09/04 01:24:55;;;;;;;8.18;3.40;;;15.00;99.90;;;;;;5029223;28;20029;-79
2021/09/04 01:27:21;;;;;;;10.93;3.17;;;15.00;99.90;;;;;;5025602;28;20543;-79
2021/09/04 01:29:47;;;;;;;11.60;3.28;;;15.00;99.90;;;;;;5021625;28;20049;-79
2021/09/04 01:32:12;;;;;;;9.10;3.20;;;15.00;99.90;;;;;;5010616;28;20100;-79
2021/09/04 01:34:38;;;;;;;8.18;2.88;;;15.00;99.90;;;;;;5014561;28;20512;-79
2021/09/04 01:37:04;;;;;;;13.20;2.92;;;15.00;99.90;;;;;;5024683;28;20041;-79
2021/09/04 01:39:29;;;;;;;8.05;2.80;;;14.90;99.90;;;;;;5032073;28;20053;-79
2021/09/04 01:42:14;;;;;;;6.15;2.85;;;15.00;99.90;;;;;;5039076;28;20042;-79
2021/09/04 01:44:39;;;;;;;7.40;2.60;;;15.00;99.90;;;;;;5033509;28;20050;-79
2021/09/04 01:47:05;;;;;;;11.77;3.15;;;15.00;99.90;;;;;;5026784;28;20184;-79
2021/09/04 01:49:31;;;;;;;5.80;2.63;;;15.00;99.90;;;;;;5029250;28;20063;-79
2021/09/04 01:51:56;;;;;;;6.18;2.92;;;15.00;99.90;;;;;;5007647;28;20070;-79
2021/09/04 01:54:22;;;;;;;8.00;3.08;;;15.10;99.90;;;;;;5025698;28;20088;-79
2021/09/04 01:56:48;;;;;;;7.88;3.08;;;15.00;99.90;;;;;;5012555;28;20179;-79
2021/09/04 01:59:14;;;;;;;7.15;2.70;;;14.90;99.90;;;;;;5024420;28;20134;-79
2021/09/04 02:01:39;;;;;;;8.23;2.55;;;14.90;99.90;;;;;;5019544;28;20049;-79
2021/09/04 02:04:05;;;;;;;4.97;2.47;;;14.90;99.90;;;;;;5028512;28;20045;-79
2021/09/04 02:06:32;;;;;;;6.80;2.95;;;14.90;99.90;;;;;;5027177;28;20061;-79
2021/09/04 02:08:58;;;;;;;9.93;2.70;;;14.90;99.90;;;;;;5027463;28;20060;-79
2021/09/04 02:11:23;;;;;;;10.65;3.00;;;14.90;99.90;;;;;;5026675;28;20053;-79
2021/09/04 02:13:49;;;;;;;9.18;2.75;;;14.80;99.90;;;;;;5026841;28;20128;-79
2021/09/04 02:16:14;;;;;;;8.43;2.92;;;14.90;99.90;;;;;;5024680;28;20140;-79
2021/09/04 02:18:40;;;;;;;5.70;2.58;;;14.90;99.90;;;;;;5024151;28;20128;-79
2021/09/04 02:21:06;;;;;;;8.88;2.60;;;14.90;99.90;;;;;;5027139;28;20049;-79
2021/09/04 02:23:31;;;;;;;9.70;2.72;;;14.90;99.90;;;;;;5012635;28;20133;-79
2021/09/04 02:25:57;;;;;;;7.32;2.60;;;14.90;99.90;;;;;;5033441;28;20880;-79
2021/09/04 02:28:22;;;;;;;9.20;2.50;;;14.90;99.90;;;;;;5029946;28;20041;-79
2021/09/04 02:30:48;;;;;;;9.05;2.53;;;14.90;99.90;;;;;;5030990;28;20059;-79
2021/09/04 02:33:14;;;;;;;6.78;2.45;;;14.90;99.90;;;;;;5031157;28;20137;-79
2021/09/04 02:35:40;;;;;;;11.65;2.85;;;14.90;99.90;;;;;;5028813;28;20401;-79
2021/09/04 02:38:06;;;;;;;8.82;2.80;;;14.90;99.90;;;;;;5014352;28;20049;-79
2021/09/04 02:40:31;;;;;;;6.18;2.40;;;15.00;99.90;;;;;;5030647;28;20427;-80
2021/09/04 02:42:57;;;;;;;10.05;2.80;;;14.90;99.90;;;;;;5032300;28;20060;-79
2021/09/04 02:45:23;;;;;;;7.82;2.40;;;14.90;99.90;;;;;;5011923;28;20526;-79
2021/09/04 02:47:48;;;;;;;14.05;2.50;;;14.90;99.90;;;;;;5030136;28;20523;-79
2021/09/04 02:50:14;;;;;;;8.93;2.75;;;14.90;99.90;;;;;;5010311;28;20049;-79
2021/09/04 02:52:40;;;;;;;10.50;2.65;;;14.90;99.90;;;;;;5027633;28;20101;-80
2021/09/04 02:55:06;;;;;;;9.98;2.90;;;14.90;99.90;;;;;;5028730;28;20041;-79
2021/09/04 02:57:32;;;;;;;8.40;2.63;;;14.90;99.90;;;;;;5011948;28;20468;-79
2021/09/04 02:59:57;;;;;;;18.58;3.55;;;14.90;99.90;;;;;;5020891;28;20049;-79
2021/09/04 03:02:23;;;;;;;5.75;2.42;;;14.90;99.90;;;;;;5030193;28;20091;-79
2021/09/04 03:04:49;;;;;;;6.38;2.70;;;14.90;99.90;;;;;;5013407;28;20476;-79
2021/09/04 03:07:14;;;;;;;9.63;2.80;;;14.90;99.90;;;;;;5011109;28;20426;-79
2021/09/04 03:09:40;;;;;;;8.60;2.72;;;14.90;99.90;;;;;;5029941;28;20128;-79
2021/09/04 03:12:06;;;;;;;9.50;2.85;;;14.90;99.90;;;;;;5018451;28;20045;-80
2021/09/04 03:14:32;;;;;;;8.63;2.88;;;14.90;99.90;;;;;;5028797;28;20464;-79
2021/09/04 03:16:57;;;;;;;11.20;3.15;;;14.90;99.90;;;;;;5013987;28;20095;-79
2021/09/04 03:19:23;;;;;;;10.43;2.95;;;14.90;99.90;;;;;;5026631;28;20064;-79
2021/09/04 03:21:49;;;;;;;8.52;3.35;;;14.90;99.90;;;;;;5028807;28;20131;-79
2021/09/04 03:24:14;;;;;;;6.72;2.72;;;14.90;99.90;;;;;;5025373;28;20095;-80
2021/09/04 03:26:40;;;;;;;7.80;2.75;;;14.70;99.90;;;;;;5028346;28;20423;-80
2021/09/04 03:29:06;;;;;;;7.93;3.00;;;14.90;99.90;;;;;;5029407;28;20075;-79
2021/09/04 03:31:31;;;;;;;7.18;2.92;;;14.90;99.90;;;;;;5013112;28;20435;-79
2021/09/04 03:33:57;;;;;;;6.88;2.83;;;14.90;99.90;;;;;;5007628;28;20053;-79
2021/09/04 03:36:23;;;;;;;8.30;2.80;;;14.90;99.90;;;;;;5028540;28;20719;-79
2021/09/04 03:38:48;;;;;;;9.30;3.08;;;14.80;99.90;;;;;;5027889;28;20419;-79
2021/09/04 03:41:14;;;;;;;9.90;2.67;;;14.90;99.90;;;;;;5028460;28;20041;-80
2021/09/04 03:43:40;;;;;;;8.80;3.10;;;14.80;99.90;;;;;;5024895;28;20136;-80
2021/09/04 03:46:05;;;;;;;11.07;3.00;;;14.90;99.90;;;;;;5026282;28;20572;-79
2021/09/04 03:48:31;;;;;;;6.05;3.08;;;14.90;99.90;;;;;;5028148;28;20500;-80
2021/09/04 03:50:57;;;;;;;14.93;3.05;;;14.80;99.90;;;;;;5013797;28;20044;-78
2021/09/04 03:53:22;;;;;;;11.25;2.92;;;14.80;99.90;;;;;;5009501;28;20092;-78
2021/09/04 03:55:48;;;;;;;8.80;3.00;;;14.80;99.90;;;;;;5024443;28;20060;-78
2021/09/04 03:58:13;;;;;;;10.85;3.03;;;14.90;99.90;;;;;;5009096;28;20053;-79
2021/09/04 04:00:39;;;;;;;11.35;2.95;;;14.80;99.90;;;;;;5013699;28;20107;-79
2021/09/04 04:03:05;;;;;;;10.15;3.30;;;14.90;99.90;;;;;;5041267;28;20075;-79
2021/09/04 04:05:30;;;;;;;12.27;3.00;;;14.80;99.90;;;;;;5017725;28;20045;-79
2021/09/04 04:07:56;;;;;;;12.73;3.47;;;14.80;99.90;;;;;;5048458;28;20130;-79
2021/09/04 04:10:22;;;;;;;14.48;3.08;;;14.80;99.90;;;;;;5031280;28;20507;-79
2021/09/04 04:12:47;;;;;;;9.98;3.40;;;14.80;99.90;;;;;;5031125;28;20491;-79
2021/09/04 04:15:13;;;;;;;13.15;3.13;;;14.90;99.90;;;;;;5012553;28;20056;-79
2021/09/04 04:17:39;;;;;;;8.00;3.00;;;14.80;99.90;;;;;;5009974;28;20037;-79
2021/09/04 04:20:06;;;;;;;6.25;2.80;;;14.80;99.90;;;;;;5030113;28;20064;-79
2021/09/04 04:22:31;;;;;;;8.70;2.80;;;14.80;99.90;;;;;;5027330;28;20057;-79
2021/09/04 04:24:57;;;;;;;7.60;2.90;;;14.80;99.90;;;;;;5011689;28;20052;-79
2021/09/04 04:27:23;;;;;;;8.38;2.85;;;14.80;99.90;;;;;;5046652;28;20091;-79
2021/09/04 04:29:48;;;;;;;6.60;2.70;;;14.70;99.90;;;;;;5031284;28;20072;-79
2021/09/04 04:32:14;;;;;;;11.30;2.85;;;14.80;99.90;;;;;;5028768;28;20126;-78
2021/09/04 04:34:39;;;;;;;6.88;2.88;;;14.80;99.90;;;;;;5042164;28;20073;-78
2021/09/04 04:37:05;;;;;;;6.78;2.70;;;14.80;99.90;;;;;;5028405;28;20059;-79
2021/09/04 04:39:31;;;;;;;8.15;2.80;;;14.80;99.90;;;;;;5046736;28;20174;-79
2021/09/04 04:41:56;;;;;;;9.70;3.03;;;14.80;99.90;;;;;;5030547;28;20448;-79
2021/09/04 04:44:22;;;;;;;9.73;2.78;;;14.80;99.90;;;;;;5047020;28;20516;-78
2021/09/04 04:46:48;;;;;;;8.05;2.75;;;14.80;99.90;;;;;;5026906;28;20128;-79
2021/09/04 04:49:13;;;;;;;8.40;2.90;;;14.80;99.90;;;;;;5029593;28;20041;-78
2021/09/04 04:51:39;;;;;;;8.05;3.05;;;14.80;99.90;;;;;;5028303;28;20559;-79
2021/09/04 04:54:05;;;;;;;6.35;2.72;;;14.80;99.90;;;;;;5012124;28;20077;-78
2021/09/04 04:56:31;;;;;;;9.88;3.70;;;14.80;99.90;;;;;;5011674;28;20168;-78
2021/09/04 04:58:56;;;;;;;13.70;3.42;;;14.90;99.90;;;;;;5026693;28;20141;-79
2021/09/04 05:01:22;;;;;;;8.85;3.10;;;14.80;99.90;;;;;;5026648;28;20115;-79
2021/09/04 05:03:48;;;;;;;10.43;3.50;;;14.80;99.90;;;;;;5011546;28;20049;-79
2021/09/04 05:06:14;;;;;;;7.20;3.40;;;14.80;99.90;;;;;;5027453;28;20041;-78
2021/09/04 05:08:39;;;;;;;9.35;3.75;;;14.80;99.90;;;;;;5008235;28;20107;-78
2021/09/04 05:11:05;;;;;;;8.68;3.40;;;14.80;99.90;;;;;;5033757;28;20052;-79
2021/09/04 05:13:31;;;;;;;5.68;3.17;;;14.80;99.90;;;;;;5016786;28;20051;-79
2021/09/04 05:15:56;;;;;;;9.23;3.55;;;14.80;99.90;;;;;;5015464;28;20084;-78
2021/09/04 05:18:22;;;;;;;7.85;3.70;;;14.90;99.90;;;;;;5013052;28;20358;-78
2021/09/04 05:20:49;;;;;;;11.15;4.63;;;14.90;99.90;;;;;;5033674;28;20073;-79
2021/09/04 05:23:15;;;;;;;8.93;4.40;;;14.90;99.90;;;;;;5016032;28;20175;-79
2021/09/04 05:25:41;;;;;;;9.50;4.38;;;14.90;99.90;;;;;;5030306;28;20540;-79
2021/09/04 05:28:07;;;;;;;10.82;3.78;;;14.90;99.90;;;;;;5031264;28;20729;-77
2021/09/04 05:30:32;;;;;;;7.85;3.88;;;14.90;99.90;;;;;;5014458;28;20046;-78
2021/09/04 05:32:58;;;;;;;9.85;3.30;;;15.00;99.90;;;;;;5029750;28;20136;-80
2021/09/04 05:35:24;;;;;;;9.25;3.08;;;15.00;99.90;;;;;;5015947;28;20052;-80
2021/09/04 05:37:49;;;;;;;11.23;3.15;;;15.00;99.90;;;;;;5011056;28;20060;-79
2021/09/04 05:40:15;;;;;;;6.68;3.03;;;15.00;99.90;;;;;;5015088;28;20049;-79
2021/09/04 05:42:43;;;;;;;6.78;2.92;;;15.00;99.90;;;;;;5031379;28;20041;-80
2021/09/04 05:45:10;;;;;;;14.27;2.78;;;15.00;99.90;;;;;;5027999;28;20067;-80
2021/09/04 05:47:35;;;;;;;8.05;2.72;;;15.00;99.90;;;;;;5015765;28;20135;-80
2021/09/04 05:50:03;;;;;;;7.13;2.80;;;15.10;99.90;;;;;;5029820;28;20123;-80
2021/09/04 05:52:29;;;;;;;11.30;2.45;;;15.00;99.90;;;;;;5047644;28;20186;-79
2021/09/04 05:54:55;;;;;;;10.98;2.38;;;15.10;99.90;;;;;;5015184;28;20156;-79
2021/09/04 05:57:21;;;;;;;10.40;2.22;;;15.10;99.90;;;;;;5029074;28;20124;-79
2021/09/04 05:59:47;;;;;;;7.95;2.35;;;15.10;99.90;;;;;;5016213;28;20072;-78
2021/09/04 06:02:13;;;;;;;8.82;2.50;;;15.20;99.90;;;;;;5015304;28;20037;-78
2021/09/04 06:04:39;;;;;;;6.28;2.05;;;15.20;99.90;;;;;;5031340;28;20041;-79
2021/09/04 06:07:05;;;;;;;8.63;2.38;;;15.30;99.90;;;;;;5028739;28;20107;-79
2021/09/04 06:09:31;;;;;;;5.50;2.13;;;15.30;99.90;;;;;;5032199;28;20060;-79
2021/09/04 06:11:56;;;;;;;8.48;2.25;;;15.30;99.90;;;;;;5028326;28;20047;-80
2021/09/04 06:14:22;;;;;;;11.48;1.88;;;15.30;99.90;;;;;;5027341;28;20045;-80
2021/09/04 06:16:48;;;;;;;5.80;1.88;;;15.30;99.90;;;;;;5026009;28;20033;-79
2021/09/04 06:19:13;;;;;;;6.93;2.05;;;15.40;99.90;;;;;;5028017;28;20090;-79
2021/09/04 06:21:40;;;;;;;10.73;2.22;;;15.40;99.90;;;;;;5030640;28;20053;-79
2021/09/04 06:24:06;;;;;;;10.38;2.53;;;15.50;99.90;;;;;;5032532;28;20059;-78
2021/09/04 06:26:31;;;;;;;6.63;2.00;;;15.50;99.90;;;;;;5013268;28;20049;-79
2021/09/04 06:28:57;;;;;;;7.63;1.95;;;15.50;99.90;;;;;;5015696;28;20045;-76
2021/09/04 06:31:23;;;;;;;7.82;2.05;;;15.60;99.90;;;;;;5015927;28;20053;-76
2021/09/04 06:33:48;;;;;;;7.38;2.85;;;15.60;99.90;;;;;;5016407;28;20048;-76
2021/09/04 06:36:14;;;;;;;6.85;2.28;;;15.70;99.90;;;;;;5029901;28;20133;-78
2021/09/04 06:38:40;;;;;;;11.50;2.70;;;15.70;99.90;;;;;;5014914;28;20049;-76
2021/09/04 06:41:05;;;;;;;9.93;2.30;;;15.70;99.90;;;;;;5013954;28;20091;-76
2021/09/04 06:43:31;;;;;;;7.28;3.20;;;15.90;99.90;;;;;;5033494;28;20053;-75
2021/09/04 06:45:57;;;;;;;4.32;2.00;;;16.00;99.90;;;;;;5010922;28;20182;-73
2021/09/04 06:48:22;;;;;;;4.57;2.20;;;16.00;99.90;;;;;;5013824;28;20041;-76
2021/09/04 06:50:48;;;;;;;8.98;2.88;;;16.10;99.90;;;;;;5024989;28;20473;-77
2021/09/04 06:53:13;;;;;;;5.10;2.33;;;16.10;99.90;;;;;;5029347;28;20126;-78
2021/09/04 06:55:39;;;;;;;8.27;2.38;;;16.10;99.90;;;;;;5028742;28;20487;-77
2021/09/04 06:58:05;;;;;;;7.55;2.53;;;16.20;99.90;;;;;;5023066;28;20064;-79
2021/09/04 07:00:30;;;;;;;4.95;2.13;;;16.20;99.90;;;;;;5020743;28;20042;-77
2021/09/04 07:02:56;;;;;;;5.13;2.40;;;16.30;99.90;;;;;;5000962;28;20060;-77
2021/09/04 07:05:22;;;;;;;7.95;2.92;;;16.40;99.90;;;;;;5002182;28;20106;-78
2021/09/04 07:07:47;;;;;;;7.60;2.35;;;16.40;99.90;;;;;;5024821;28;20121;-77
2021/09/04 07:10:13;;;;;;;10.13;2.40;;;16.40;99.90;;;;;;5026881;28;20072;-76
2021/09/04 07:12:39;;;;;;;3.00;2.03;;;16.40;99.90;;;;;;5014082;28;20106;-75
2021/09/04 07:15:05;;;;;;;6.45;2.33;;;16.50;99.90;;;;;;5030409;28;20121;-76
2021/09/04 07:17:31;;;;;;;5.28;2.35;;;16.50;99.90;;;;;;5013003;28;20415;-77
2021/09/04 07:19:57;;;;;;;6.00;2.28;;;16.50;99.90;;;;;;5031564;28;20053;-76
2021/09/04 07:22:22;;;;;;;9.60;2.30;;;16.50;99.90;;;;;;5011778;28;20048;-76
2021/09/04 07:24:48;;;;;;;3.38;2.00;;;16.60;99.90;;;;;;5032190;28;20033;-76
2021/09/04 07:27:14;;;;;;;3.90;1.80;;;16.60;99.90;;;;;;5015144;28;20158;-76
2021/09/04 07:29:39;;;;;;;8.38;2.45;;;16.60;99.90;;;;;;5031325;28;20186;-77
2021/09/04 07:32:05;;;;;;;6.93;2.60;;;16.40;99.90;;;;;;5023620;28;20077;-76
2021/09/04 07:34:31;;;;;;;8.38;2.30;;;16.40;99.90;;;;;;5007320;28;20083;-77
2021/09/04 07:36:57;;;;;;;4.22;2.05;;;16.40;99.90;;;;;;5031246;28;20456;-76
2021/09/04 07:39:22;;;;;;;7.75;2.53;;;16.50;99.90;;;;;;5030838;28;20045;-76
2021/09/04 07:41:48;;;;;;;3.78;1.90;;;16.50;99.90;;;;;;5031271;28;20048;-77
2021/09/04 07:44:14;;;;;;;5.10;1.85;;;16.50;99.90;;;;;;5030447;28;20383;-76
2021/09/04 07:46:39;;;;;;;4.55;2.00;;;16.50;99.90;;;;;;5031742;28;20415;-79
2021/09/04 07:49:05;;;;;;;7.97;2.05;;;16.60;99.90;;;;;;5033105;28;20039;-77
2021/09/04 07:51:31;;;;;;;6.72;2.20;;;16.70;99.90;;;;;;5031218;28;20484;-78
2021/09/04 07:53:56;;;;;;;5.63;1.80;;;16.70;99.90;;;;;;4999336;28;20499;-78
2021/09/04 07:56:22;;;;;;;6.78;2.05;;;16.80;99.90;;;;;;5032292;28;20049;-78
2021/09/04 07:58:47;;;;;;;5.80;2.00;;;16.90;99.90;;;;;;5012313;28;20044;-78
2021/09/04 08:01:13;;;;;;;6.25;1.92;;;17.00;99.90;;;;;;5033008;28;20048;-78
2021/09/04 08:03:39;;;;;;;5.22;1.90;;;17.10;99.90;;;;;;5013043;28;20080;-78
2021/09/04 08:06:05;;;;;;;7.55;2.15;;;17.10;99.90;;;;;;5024388;28;20433;-78
2021/09/04 08:08:31;;;;;;;7.10;2.17;;;17.20;99.90;;;;;;5013794;28;20033;-78
2021/09/04 08:10:58;;;;;;;7.60;2.60;;;17.30;99.90;;;;;;5013549;28;20060;-78
2021/09/04 08:13:24;;;;;;;3.05;1.90;;;17.40;99.90;;;;;;5015929;28;20096;-78
2021/09/04 08:15:51;;;;;;;5.30;1.88;;;17.40;99.90;;;;;;5020759;28;20040;-78
2021/09/04 08:18:17;;;;;;;6.43;2.40;;;17.50;99.90;;;;;;5004922;28;20104;-78
2021/09/04 08:20:43;;;;;;;8.98;2.20;;;17.50;99.90;;;;;;5012203;28;20057;-78
2021/09/04 08:23:09;;;;;;;5.30;2.10;;;17.50;99.90;;;;;;5030015;28;20046;-78
2021/09/04 08:25:36;;;;;;;6.80;2.60;;;17.50;99.90;;;;;;5031861;28;20179;-76
2021/09/04 08:28:09;;;;;;;10.13;2.40;;;17.60;99.90;;;;;;5031650;28;20400;-77
2021/09/04 08:30:36;;;;;;;6.90;2.08;;;17.70;99.90;;;;;;5043718;28;20041;-77
2021/09/04 08:33:03;;;;;;;15.48;2.85;;;17.60;99.90;;;;;;5030664;28;20385;-78
2021/09/04 08:35:28;;;;;;;7.05;2.15;;;17.50;99.90;;;;;;5020727;28;20056;-78
2021/09/04 08:37:55;;;;;;;6.38;2.88;;;17.50;99.90;;;;;;5031388;28;20037;-78
2021/09/04 08:40:21;;;;;;;6.57;2.40;;;17.50;99.90;;;;;;5033471;28;20048;-77
2021/09/04 08:42:47;;;;;;;5.72;2.22;;;17.60;99.90;;;;;;5033051;28;20522;-78
2021/09/04 08:45:13;;;;;;;6.20;2.25;;;17.70;99.90;;;;;;5019707;28;20480;-78
2021/09/04 08:47:39;;;;;;;6.28;2.33;;;17.70;99.90;;;;;;5019090;28;20091;-78
2021/09/04 08:50:06;;;;;;;9.43;2.53;;;17.50;99.90;;;;;;5019607;28;20071;-77
2021/09/04 08:52:32;;;;;;;11.50;2.60;;;17.60;99.90;;;;;;5018558;28;20496;-77
2021/09/04 08:54:58;;;;;;;6.03;2.80;;;17.60;99.90;;;;;;5035654;28;20067;-78
2021/09/04 08:57:24;;;;;;;7.15;2.50;;;17.50;99.90;;;;;;5034642;28;20043;-78
2021/09/04 08:59:51;;;;;;;9.95;3.13;;;17.60;99.90;;;;;;5018057;28;20465;-78
2021/09/04 09:02:18;;;;;;;7.90;2.80;;;17.60;99.90;;;;;;5034826;28;20075;-79
2021/09/04 09:05:02;;;;;;;7.63;2.95;;;17.80;99.90;;;;;;5033268;28;20040;-82
2021/09/04 09:07:57;;;;;;;8.50;3.03;;;17.90;99.90;;;;;;5030822;28;20029;-83
2021/09/04 09:10:32;;;;;;;10.10;3.30;;;18.00;99.90;;;;;;5029787;28;20056;-83
2021/09/04 09:12:58;;;;;;;9.88;3.30;;;18.30;99.90;;;;;;5017824;28;20063;-82
2021/09/04 09:15:28;;;;;;;8.25;3.17;;;18.40;99.90;;;;;;5032898;28;20499;-83
2021/09/04 09:18:06;;;;;;;9.93;3.88;;;18.40;99.90;;;;;;5034977;28;20328;-82
2021/09/04 09:20:46;;;;;;;8.73;3.10;;;18.50;99.90;;;;;;5033393;28;20433;-82
2021/09/04 09:23:15;;;;;;;9.52;3.30;;;18.80;99.90;;;;;;5027947;28;20085;-83
2021/09/04 09:25:43;;;;;;;12.05;3.50;;;18.90;99.90;;;;;;5014128;28;20460;-81
2021/09/04 09:28:15;;;;;;;11.38;3.67;;;19.00;99.90;;;;;;5030211;28;20045;-81
2021/09/04 09:30:49;;;;;;;12.65;3.72;;;19.00;99.90;;;;;;5015576;28;20049;-82
2021/09/04 09:33:18;;;;;;;5.93;3.30;;;19.10;99.90;;;;;;5033947;28;20132;-82
2021/09/04 09:35:46;;;;;;;7.18;3.60;;;19.30;99.90;;;;;;5043800;28;20059;-81
2021/09/04 09:38:21;;;;;;;10.20;3.70;;;19.30;99.90;;;;;;5052833;28;20061;-82
2021/09/04 09:40:47;;;;;;;11.45;4.63;;;19.60;99.90;;;;;;5045029;28;20055;-83
2021/09/04 09:43:24;;;;;;;15.13;4.53;;;19.50;99.90;;;;;;5014445;28;20049;-83
2021/09/04 09:45:58;;;;;;;16.98;5.00;;;19.60;99.90;;;;;;5031374;28;20041;-83
2021/09/04 09:48:32;;;;;;;10.45;4.65;;;19.50;99.90;;;;;;5031897;28;20161;-83
2021/09/04 09:51:00;;;;;;;9.38;4.78;;;19.20;99.90;;;;;;5030988;28;20786;-83
2021/09/04 09:53:27;;;;;;;12.73;5.20;;;19.10;99.90;;;;;;5029353;28;20049;-82
2021/09/04 09:55:55;;;;;;;10.57;4.95;;;18.80;99.90;;;;;;5015964;28;20049;-84
2021/09/04 09:58:22;;;;;;;10.05;4.97;;;18.90;99.90;;;;;;5011718;28;20070;-82
2021/09/04 10:00:53;;;;;;;9.35;4.32;;;18.70;99.90;;;;;;5021274;28;20508;-84
2021/09/04 10:03:22;;;;;;;9.15;4.60;;;18.90;99.90;;;;;;5016498;28;20488;-81
2021/09/04 10:05:48;;;;;;;17.98;5.35;;;19.20;99.90;;;;;;5014883;28;20138;-81
2021/09/04 10:08:16;;;;;;;13.25;5.85;;;19.20;99.90;;;;;;5031711;28;20092;-86
2021/09/04 10:10:45;;;;;;;9.93;5.35;;;19.20;99.90;;;;;;5031603;28;20041;-85
2021/09/04 10:13:14;;;;;;;14.65;5.68;;;19.20;99.90;;;;;;5016164;28;20045;-84
2021/09/04 10:15:45;;;;;;;13.68;6.35;;;18.90;99.90;;;;;;5034578;28;20148;-82
2021/09/04 10:18:12;;;;;;;11.40;5.93;;;18.70;99.90;;;;;;5033901;28;20441;-82
2021/09/04 10:20:38;;;;;;;12.88;5.90;;;18.50;99.90;;;;;;5047185;28;20048;-83
2021/09/04 10:23:40;;;;;;;14.02;6.22;;;18.40;99.90;;;;;;5019559;28;20095;-83
2021/09/04 10:26:39;;;;;;;14.25;6.50;;;18.90;99.90;;;;;;4991834;28;20382;-85
2021/09/04 10:29:07;;;;;;;12.48;6.40;;;19.20;99.90;;;;;;4861977;29;20053;-81
2021/09/04 10:31:48;;;;;;;12.18;6.68;;;19.50;99.90;;;;;;4862303;29;20446;-83
2021/09/04 10:34:23;;;;;;;13.07;6.72;;;19.50;99.90;;;;;;4848502;29;20063;-85
2021/09/04 10:37:16;;;;;;;17.50;6.45;;;19.60;99.90;;;;;;4879390;29;20052;-82
2021/09/04 10:39:51;;;;;;;13.65;6.63;;;19.70;99.90;;;;;;4879363;29;20147;-84
2021/09/04 10:42:19;;;;;;;;;;;19.90;99.90;;;;;;4861916;29;20105;-81
2021/09/04 10:44:49;;;;;;;13.15;6.32;;;19.90;99.90;;;;;;4895238;29;19927;-81
2021/09/04 10:47:16;;;;;;;14.95;6.88;;;20.10;99.90;;;;;;4880019;29;20532;-83
2021/09/04 10:49:45;;;;;;;12.25;6.88;;;20.60;99.90;;;;;;4879925;29;20423;-82
2021/09/04 10:52:11;;;;;;;16.50;6.95;;;21.20;99.90;;;;;;4880479;29;20142;-81
2021/09/04 10:54:56;;;;;;;14.93;6.65;;;21.20;99.90;;;;;;4880778;29;20064;-82
2021/09/04 10:57:22;;;;;;;13.90;6.60;;;20.90;99.90;;;;;;4914686;29;20055;-82
2021/09/04 11:00:08;;;;;;;12.50;7.22;;;20.50;99.90;;;;;;4934081;29;20058;-83
2021/09/04 11:02:49;;;;;;;16.52;6.95;;;20.40;99.90;;;;;;4918341;29;20107;-82
2021/09/04 11:05:24;;;;;;;22.70;6.15;;;20.20;99.90;;;;;;4976574;28;20654;-80
2021/09/04 11:08:11;;;;;;;13.05;6.10;;;20.10;99.90;;;;;;5020879;28;20116;-82
2021/09/04 11:10:39;;;;;;;13.43;5.97;;;19.90;99.90;;;;;;5032757;28;20072;-83
2021/09/04 11:13:14;;;;;;;16.35;5.95;;;19.80;99.90;;;;;;5026804;28;20048;-82
2021/09/04 11:15:40;;;;;;;;;;;19.80;99.90;;;;;;5035176;28;20510;-83
2021/09/04 11:18:06;;;;;;;15.68;6.40;;;19.70;99.90;;;;;;5018035;28;20241;-84
2021/09/04 11:20:32;;;;;;;9.82;5.13;;;19.80;99.90;;;;;;5034448;28;20064;-82
2021/09/04 11:22:59;;;;;;;12.30;5.72;;;19.90;99.90;;;;;;5000414;28;20065;-82
2021/09/04 11:25:25;;;;;;;11.25;5.70;;;20.10;99.90;;;;;;5033861;28;20077;-82
2021/09/04 11:27:51;;;;;;;10.93;5.72;;;20.10;99.90;;;;;;5033467;28;20048;-83
2021/09/04 11:30:18;;;;;;;8.20;5.22;;;20.30;99.90;;;;;;5034275;28;20040;-81
2021/09/04 11:32:44;;;;;;;7.95;5.40;;;20.40;99.90;;;;;;4998307;28;20059;-81
2021/09/04 11:35:11;;;;;;;12.55;5.20;;;20.30;99.90;;;;;;5014514;28;20079;-82
2021/09/04 11:37:39;;;;;;;15.60;5.60;;;20.50;99.90;;;;;;5030478;28;20118;-80
2021/09/04 11:40:14;;;;;;;12.48;5.22;;;20.60;99.90;;;;;;5016185;28;20095;-80
2021/09/04 11:42:49;;;;;;;12.77;5.38;;;20.80;99.90;;;;;;5013589;28;20103;-81
2021/09/04 11:45:16;;;;;;;11.10;5.10;;;20.90;99.90;;;;;;4985232;28;20049;-82
2021/09/04 11:47:46;;;;;;;8.30;4.90;;;20.60;99.90;;;;;;5034122;28;20059;-80
2021/09/04 11:50:32;;;;;;;9.07;4.90;;;20.70;99.90;;;;;;5032569;28;20055;-82
2021/09/04 11:53:07;;;;;;;12.15;5.00;;;20.70;99.90;;;;;;4923751;28;20055;-81
2021/09/04 11:55:33;;;;;;;9.45;4.95;;;21.00;99.90;;;;;;4952233;28;20447;-81
2021/09/04 11:58:04;;;;;;;10.65;5.03;;;21.10;99.90;;;;;;4947755;29;20059;-82
2021/09/04 12:00:34;;;;;;;12.68;5.25;;;21.60;99.90;;;;;;4953037;28;20076;-83
2021/09/04 12:03:02;;;;;;;8.65;5.03;;;21.50;99.90;;;;;;4927325;29;20325;-81
2021/09/04 12:05:32;;;;;;;13.20;5.03;;;21.50;99.90;;;;;;4951632;29;20155;-83
2021/09/04 12:08:02;;;;;;;13.65;4.80;;;21.40;99.90;;;;;;4935076;29;20090;-81
2021/09/04 12:10:31;;;;;;;14.85;5.47;;;21.70;99.90;;;;;;4952147;28;20138;-82
2021/09/04 12:13:05;;;;;;;11.27;5.07;;;21.50;99.90;;;;;;4935370;29;20150;-82
2021/09/04 12:15:32;;;;;;;8.75;4.95;;;21.70;99.90;;;;;;4934590;29;20055;-82
2021/09/04 12:18:03;;;;;;;11.48;5.10;;;21.80;99.90;;;;;;4933817;28;20051;-82
2021/09/04 12:20:46;;;;;;;10.10;5.28;;;22.10;99.90;;;;;;4931096;28;20047;-82
2021/09/04 12:23:27;;;;;;;8.45;5.40;;;22.50;99.90;;;;;;4933219;29;20495;-82
2021/09/04 12:26:06;;;;;;;13.50;5.50;;;22.80;99.90;;;;;;4932997;29;20040;-82
2021/09/04 12:28:34;;;;;;;8.73;5.05;;;22.90;99.90;;;;;;4932768;29;20050;-82
2021/09/04 12:31:02;;;;;;;10.15;5.18;;;22.90;99.90;;;;;;5021262;28;20052;-82
2021/09/04 12:33:30;;;;;;;8.40;5.10;;;22.80;99.90;;;;;;5015633;28;20044;-82
2021/09/04 12:36:01;;;;;;;12.13;5.00;;;22.80;99.90;;;;;;5015285;28;20135;-82
2021/09/04 12:38:32;;;;;;;10.18;5.00;;;23.10;99.90;;;;;;5051622;28;20045;-82
2021/09/04 12:41:02;;;;;;;14.07;5.03;;;23.20;99.90;;;;;;5012938;28;20053;-83
2021/09/04 12:43:28;;;;;;;8.00;4.78;;;23.50;99.90;;;;;;5013565;28;20056;-82
2021/09/04 12:46:02;;;;;;;11.07;5.50;;;23.10;99.90;;;;;;5051070;28;20045;-82